Latest Coastal Weather Observations for Port Kembla Harbour

IDN60701

Issued at 6:03 am EDT Tuesday 3 March 2015 (issued every 10 minutes, with the page automatically refreshed every 10 minutes)

About coastal observations | Map of coastal stations | Coastal observations for NSW | Marine services | Other Formats
Station Details ID: 068253 Name: PORT KEMBLA NTC AWS Lat: -34.47 Lon: 150.91 Height: 0.0 m
Data from the previous 72 hours. | See also: Recent months for locations in New South Wales
Date/Time
EDT
Temp

°C
Wind Pressure Rain
since 9am
mm
Weather Cloud Vis
km
Sea
Height
m
Swell
Dir
 
Speed
knots
Gust
knots
hPa Trend Height
m
Period
s
Dir
03/05:30am 20.7 NW 8 9 1013.8 - - - - - - - - -
03/05:00am 20.8 NNW 7 9 1014.2 - - - - - - - - -
03/04:30am 20.9 NW 8 11 1014.3 - - - - - - - - -
03/04:00am 20.5 NNW 6 9 1014.2 - - - - - - - - -
03/03:30am 20.8 NNW 5 8 1014.6 - - - - - - - - -
03/03:00am 20.8 NNW 5 7 1015.2 - - - - - - - - -
03/02:30am 20.9 N 5 7 1015.4 - - - - - - - - -
03/02:00am 21.1 N 5 9 1015.8 - - - - - - - - -
03/01:30am 21.1 NNW 5 7 1016.2 - - - - - - - - -
03/01:00am 21.2 NNW 5 7 1016.7 - - - - - - - - -
03/12:30am 21.4 N 5 9 1016.9 - - - - - - - - -
03/12:00am 21.4 N 4 7 1017.0 - - - - - - - - -
 
Date/Time
EDT
Temp

°C
Wind Pressure Rain
since 9am
mm
Weather Cloud Vis
km
Sea
Height
m
Swell
Dir
 
Speed
knots
Gust
knots
hPa Trend Height
m
Period
s
Dir
02/11:30pm 21.5 N 5 8 1017.2 - - - - - - - - -
02/11:00pm 21.6 N 6 9 1017.2 - - - - - - - - -
02/10:30pm 21.6 N 5 8 1017.3 - - - - - - - - -
02/10:00pm 21.5 N 5 9 1017.1 - - - - - - - - -
02/09:30pm 21.6 N 6 8 1016.9 - - - - - - - - -
02/09:00pm 21.6 N 4 6 1016.7 - - - - - - - - -
02/08:30pm 21.7 N 3 4 1017.0 - - - - - - - - -
02/08:00pm 21.6 WNW 2 3 1017.1 - - - - - - - - -
02/07:30pm 21.5 NNE 1 3 1016.8 - - - - - - - - -
02/07:00pm 21.4 SE 1 3 1016.6 - - - - - - - - -
02/06:30pm 21.6 SE 3 5 1016.5 - - - - - - - - -
02/06:00pm 21.5 SSW 3 5 1016.6 - - - - - - - - -
02/05:30pm 21.5 S 3 6 1016.5 - - - - - - - - -
02/05:00pm 21.4 SE 4 7 1016.5 - - - - - - - - -
02/04:30pm 21.2 SSE 4 6 1016.5 - - - - - - - - -
02/04:00pm 21.5 SSE 3 6 1016.6 - - - - - - - - -
02/03:30pm 21.6 SE 4 8 1017.0 - - - - - - - - -
02/03:00pm 21.0 S 4 9 1017.3 - - - - - - - - -
02/02:30pm 22.0 S 5 10 1017.5 - - - - - - - - -
02/02:00pm 21.1 S 5 9 1017.7 - - - - - - - - -
02/01:30pm 21.5 S 6 10 1018.1 - - - - - - - - -
02/01:00pm 21.3 SSW 7 12 1018.4 - - - - - - - - -
02/12:30pm 21.2 S 6 12 1018.8 - - - - - - - - -
02/12:00pm 21.4 S 7 14 1019.0 - - - - - - - - -
02/11:30am 21.3 SSW 7 12 1019.3 - - - - - - - - -
02/11:00am 21.1 S 6 13 1019.1 - - - - - - - - -
02/10:30am 20.8 SSW 7 14 1018.9 - - - - - - - - -
02/10:00am 20.3 SW 11 16 1019.0 - - - - - - - - -
02/09:30am 20.1 SW 8 13 1018.8 - - - - - - - - -
02/09:00am 19.5 SW 9 15 1018.5 - - - - - - - - -
02/08:30am 18.8 SW 8 15 1018.4 - - - - - - - - -
02/08:00am 18.5 SW 8 12 1018.5 - - - - - - - - -
02/07:30am 17.9 SW 7 9 1018.1 - - - - - - - - -
02/07:00am 17.6 WSW 7 9 1017.9 - - - - - - - - -
02/06:30am 18.0 SW 7 12 1017.5 - - - - - - - - -
02/06:00am 18.0 SW 7 11 1016.8 - - - - - - - - -
02/05:30am 17.7 WSW 5 8 1017.0 - - - - - - - - -
02/05:00am 18.0 WSW 9 13 1016.8 - - - - - - - - -
02/04:30am 18.3 SW 8 12 1016.3 - - - - - - - - -
02/04:00am 18.4 WSW 7 11 1016.5 - - - - - - - - -
02/03:30am 18.4 SW 8 13 1016.6 - - - - - - - - -
02/03:00am 18.7 WSW 8 13 1016.8 - - - - - - - - -
02/02:30am 18.8 SW 10 14 1016.7 - - - - - - - - -
02/02:00am 19.1 SW 8 12 1016.8 - - - - - - - - -
02/01:30am 19.8 SSW 8 15 1017.0 - - - - - - - - -
02/01:00am 20.2 SSW 9 17 1016.9 - - - - - - - - -
02/12:30am 20.4 SSW 10 21 1016.9 - - - - - - - - -
02/12:00am 20.7 SSW 10 22 1016.9 - - - - - - - - -
 
Date/Time
EDT
Temp

°C
Wind Pressure Rain
since 9am
mm
Weather Cloud Vis
km
Sea
Height
m
Swell
Dir
 
Speed
knots
Gust
knots
hPa Trend Height
m
Period
s
Dir
01/11:30pm 20.8 SSW 10 18 1016.6 - - - - - - - - -
01/11:00pm 20.6 SSW 9 17 1016.6 - - - - - - - - -
01/10:30pm 21.1 SSW 12 24 1016.3 - - - - - - - - -
01/10:00pm 21.1 SSW 10 21 1015.8 - - - - - - - - -
01/09:30pm 21.3 S 12 20 1015.3 - - - - - - - - -
01/09:00pm 21.1 SSW 10 18 1014.7 - - - - - - - - -
01/08:30pm 21.1 SSW 9 17 1013.9 - - - - - - - - -
01/08:00pm 20.9 SSW 11 19 1013.2 - - - - - - - - -
01/07:30pm 20.7 SSW 11 19 1012.3 - - - - - - - - -
01/07:00pm 20.6 SW 13 20 1011.6 - - - - - - - - -
01/06:30pm 20.6 SW 15 23 1010.7 - - - - - - - - -
01/06:00pm 20.3 SSW 12 25 1010.0 - - - - - - - - -
01/05:30pm 20.2 SSW 14 27 1009.1 - - - - - - - - -
01/05:20pm 20.5 SSW 15 26 1008.9 - - - - - - - - -
01/05:00pm 20.8 SSW 11 21 1009.1 - - - - - - - - -
01/04:30pm 20.6 SSW 10 20 1008.1 - - - - - - - - -
01/04:00pm 21.5 SSW 12 23 1007.5 - - - - - - - - -
01/03:58pm 21.4 SSW 12 23 1007.4 - - - - - - - - -
01/03:32pm 21.9 SSW 15 27 1005.4 - - - - - - - - -
01/03:30pm 21.9 SSW 14 27 1005.5 - - - - - - - - -
01/03:00pm 22.4 SSW 16 27 1005.6 - - - - - - - - -
01/02:53pm 23.1 SW 15 27 1005.5 - - - - - - - - -
01/02:30pm 23.7 S 11 22 1004.5 - - - - - - - - -
01/02:00pm 25.2 NNE 5 13 1004.4 - - - - - - - - -
01/01:30pm 24.7 WSW 4 7 1003.8 - - - - - - - - -
01/01:00pm 24.2 NE 10 15 1003.4 - - - - - - - - -
01/12:30pm 24.3 NE 10 15 1003.9 - - - - - - - - -
01/12:00pm 24.7 NE 8 12 1004.4 - - - - - - - - -
01/11:59am 24.7 NE 8 11 1004.4 - - - - - - - - -
01/11:30am 29.7 ENE 6 10 1004.5 - - - - - - - - -
01/11:00am 24.8 E 6 9 1004.9 - - - - - - - - -
01/10:30am 24.7 ENE 5 9 1004.7 - - - - - - - - -
01/10:00am 26.3 NE 4 6 1004.5 - - - - - - - - -
01/09:30am 25.5 NE 6 9 1004.6 - - - - - - - - -
01/09:00am 24.8 NE 4 6 1004.6 - - - - - - - - -
01/08:30am 25.5 N 4 7 1004.6 - - - - - - - - -
01/08:00am 23.7 NNE 6 8 1004.5 - - - - - - - - -
01/07:30am 24.1 ENE 2 5 1004.4 - - - - - - - - -
01/07:00am 23.7 NNW 5 8 1004.3 - - - - - - - - -
01/06:30am 23.6 N 4 6 1004.1 - - - - - - - - -
01/06:00am 23.9 N 4 6 1004.0 - - - - - - - - -
01/05:30am 23.6 N 4 6 1003.9 - - - - - - - - -
01/05:00am 23.4 N 3 5 1003.8 - - - - - - - - -
01/04:30am 23.5 NNE 6 7 1003.9 - - - - - - - - -
01/04:00am 23.2 NNE 6 9 1004.1 - - - - - - - - -
01/03:30am 23.3 NNE 6 9 1004.4 - - - - - - - - -
01/03:00am 23.2 NNE 6 9 1004.8 - - - - - - - - -
01/02:30am 23.5 NNE 7 9 1005.2 - - - - - - - - -
01/02:00am 23.6 N 7 9 1005.7 - - - - - - - - -
01/01:30am 23.5 N 6 8 1006.1 - - - - - - - - -
01/01:00am 23.2 NNW 5 7 1006.6 - - - - - - - - -
01/12:30am 23.3 NNE 5 7 1006.9 - - - - - - - - -
01/12:00am 22.9 NNW 4 6 1007.2 - - - - - - - - -
 
Date/Time
EDT
Temp

°C
Wind Pressure Rain
since 9am
mm
Weather Cloud Vis
km
Sea
Height
m
Swell
Dir
 
Speed
knots
Gust
knots
hPa Trend Height
m
Period
s
Dir
28/11:30pm 22.8 N 3 4 1007.4 - - - - - - - - -
28/11:00pm 23.0 NNE 5 7 1007.6 - - - - - - - - -
28/10:30pm 23.1 NNE 6 8 1007.8 - - - - - - - - -
28/10:00pm 23.1 NNE 7 10 1007.9 - - - - - - - - -
28/09:30pm 23.3 NNE 8 11 1007.9 - - - - - - - - -
28/09:00pm 23.3 NNE 10 12 1007.7 - - - - - - - - -
28/08:30pm 23.3 NE 10 14 1007.5 - - - - - - - - -
28/08:00pm 23.4 NE 14 17 1007.1 - - - - - - - - -
28/07:30pm 23.5 NE 15 20 1006.9 - - - - - - - - -
28/07:00pm 23.4 NE 14 18 1006.7 - - - - - - - - -
28/06:30pm 23.4 NE 15 20 1006.5 - - - - - - - - -
28/06:00pm 23.5 NE 15 21 1006.8 - - - - - - - - -
28/05:30pm 23.5 NE 14 18 1007.0 - - - - - - - - -

Other Formats:

Comma delimited format used in spreadsheet applications
http://www.bom.gov.au/fwo/IDN60701/IDN60701.95745.axf

JavaScript Object Notation format (JSON) in row-major order
http://www.bom.gov.au/fwo/IDN60701/IDN60701.95745.json